createdAt,value
2023-01-21T00:00:59.786Z,0.29
2023-01-21T00:03:26.461Z,0.23
2023-01-21T00:05:53.045Z,0.22
2023-01-21T00:08:19.616Z,0.14
2023-01-21T00:10:46.107Z,0.12
2023-01-21T00:13:12.561Z,0.13
2023-01-21T00:15:39.145Z,0.11
2023-01-21T00:18:05.790Z,0.08
2023-01-21T00:20:32.731Z,0.12
2023-01-21T00:22:59.285Z,0.14
2023-01-21T00:25:25.836Z,0.07
2023-01-21T00:27:52.302Z,0.13
2023-01-21T00:30:19.201Z,0.16
2023-01-21T00:32:45.721Z,0.16
2023-01-21T00:35:12.202Z,0.14
2023-01-21T00:37:38.706Z,0.14
2023-01-21T00:40:06.518Z,0.11
2023-01-21T00:42:33.000Z,0.13
2023-01-21T00:44:59.951Z,0.09
2023-01-21T00:47:26.614Z,0.07
2023-01-21T00:49:53.029Z,0.09
2023-01-21T00:52:19.577Z,0.06
2023-01-21T00:54:46.028Z,0.06
2023-01-21T00:57:13.803Z,0.06
2023-01-21T00:59:40.716Z,0.03
2023-01-21T01:02:07.200Z,0.04
2023-01-21T01:04:33.767Z,0.07
2023-01-21T01:07:00.238Z,0.11
2023-01-21T01:09:26.748Z,0.10
2023-01-21T01:11:53.203Z,0.09
2023-01-21T01:14:20.032Z,0.11
2023-01-21T01:16:46.494Z,0.04
2023-01-21T01:19:13.115Z,0.16
2023-01-21T01:21:39.575Z,0.18
2023-01-21T01:24:06.421Z,0.17
2023-01-21T01:26:35.454Z,0.16
2023-01-21T01:29:03.956Z,0.17
2023-01-21T01:31:30.493Z,0.16
2023-01-21T01:33:57.692Z,0.11
2023-01-21T01:36:24.531Z,0.13
2023-01-21T01:38:52.297Z,0.14
2023-01-21T01:41:24.718Z,0.14
2023-01-21T01:44:05.225Z,0.13
2023-01-21T01:46:36.601Z,0.13
2023-01-21T01:49:22.158Z,0.12
2023-01-21T01:51:55.935Z,0.10
2023-01-21T01:54:28.717Z,0.10
2023-01-21T01:56:59.954Z,0.08
2023-01-21T01:59:27.780Z,0.11
2023-01-21T02:01:55.896Z,0.09
2023-01-21T02:04:27.351Z,0.09
2023-01-21T02:06:55.781Z,0.07
2023-01-21T02:09:23.290Z,0.08
2023-01-21T02:11:49.940Z,0.08
2023-01-21T02:14:16.655Z,0.07
2023-01-21T02:17:00.292Z,0.07
2023-01-21T02:19:32.837Z,0.03
2023-01-21T02:22:17.564Z,0.01
2023-01-21T02:25:21.589Z,-0.03
2023-01-21T02:28:25.634Z,-0.05
2023-01-21T02:31:25.124Z,-0.06
2023-01-21T02:34:13.108Z,-0.06
2023-01-21T02:37:07.003Z,-0.09
2023-01-21T02:39:45.020Z,-0.11
2023-01-21T02:42:29.366Z,-0.14
2023-01-21T02:45:01.766Z,-0.18
2023-01-21T02:47:47.405Z,-0.23
2023-01-21T02:50:33.222Z,-0.19
2023-01-21T02:53:01.767Z,-0.21
2023-01-21T02:55:35.623Z,-0.23
2023-01-21T02:58:14.795Z,-0.27
2023-01-21T03:00:57.536Z,-0.29
2023-01-21T03:03:36.294Z,-0.32
2023-01-21T03:06:18.436Z,-0.34
2023-01-21T03:08:54.100Z,-0.34
2023-01-21T03:11:22.298Z,-0.35
2023-01-21T03:14:19.018Z,-0.38
2023-01-21T03:16:57.576Z,-0.38
2023-01-21T03:19:32.480Z,-0.40
2023-01-21T03:22:02.239Z,-0.45
2023-01-21T03:24:29.430Z,-0.43
2023-01-21T03:26:58.932Z,-0.44
2023-01-21T03:29:29.955Z,-0.43
2023-01-21T03:32:05.087Z,-0.47
2023-01-21T03:34:36.421Z,-0.46
2023-01-21T03:37:28.498Z,-0.50
2023-01-21T03:40:19.013Z,-0.53
2023-01-21T03:42:47.988Z,-0.56
2023-01-21T03:45:14.763Z,-0.57
2023-01-21T03:47:50.428Z,-0.57
2023-01-21T03:50:23.231Z,-0.58
2023-01-21T03:52:50.134Z,-0.67
2023-01-21T03:55:17.609Z,-0.68
2023-01-21T03:57:44.321Z,-0.69
2023-01-21T04:00:11.515Z,-0.68
2023-01-21T04:02:37.953Z,-0.68
2023-01-21T04:05:04.764Z,-0.73
2023-01-21T04:07:31.265Z,-0.75
2023-01-21T04:09:57.733Z,-0.75
2023-01-21T04:12:24.269Z,-0.76
2023-01-21T04:14:50.783Z,-0.74
2023-01-21T04:17:17.319Z,-0.75
2023-01-21T04:19:43.838Z,-0.76
2023-01-21T04:22:10.360Z,-0.83
2023-01-21T04:24:36.870Z,-0.82
2023-01-21T04:27:03.402Z,-0.83
2023-01-21T04:29:29.871Z,-0.82
2023-01-21T04:31:56.368Z,-0.86
2023-01-21T04:34:22.913Z,-0.86
2023-01-21T04:36:49.357Z,-0.91
2023-01-21T04:39:15.924Z,-0.91
2023-01-21T04:41:42.436Z,-0.90
2023-01-21T04:44:09.042Z,-0.88
2023-01-21T04:46:35.497Z,-0.88
2023-01-21T04:49:01.992Z,-0.93
2023-01-21T04:51:28.503Z,-0.94
2023-01-21T04:53:55.038Z,-0.97
2023-01-21T04:56:21.493Z,-0.96
2023-01-21T04:58:47.951Z,-1.01
2023-01-21T05:01:14.507Z,-1.05
2023-01-21T05:03:41.035Z,-1.08
2023-01-21T05:06:07.630Z,-1.10
2023-01-21T05:08:34.091Z,-1.13
2023-01-21T05:11:00.566Z,-1.10
2023-01-21T05:13:27.035Z,-1.17
2023-01-21T05:15:53.797Z,-1.23
2023-01-21T05:18:20.336Z,-1.23
2023-01-21T05:20:46.773Z,-1.26
2023-01-21T05:23:13.274Z,-1.28
2023-01-21T05:25:39.760Z,-1.31
2023-01-21T05:28:06.268Z,-1.34
2023-01-21T05:30:32.805Z,-1.34
2023-01-21T05:32:59.274Z,-1.39
2023-01-21T05:35:25.814Z,-1.40
2023-01-21T05:37:52.284Z,-1.40
2023-01-21T05:40:19.437Z,-1.42
2023-01-21T05:42:46.460Z,-1.51
2023-01-21T05:45:13.253Z,-1.49
2023-01-21T05:47:39.899Z,-1.49
2023-01-21T05:50:06.888Z,-1.46
2023-01-21T05:52:33.384Z,-1.46
2023-01-21T05:55:02.192Z,-1.44
2023-01-21T05:57:29.859Z,-1.45
2023-01-21T05:59:56.481Z,-1.41
2023-01-21T06:02:23.024Z,-1.40
2023-01-21T06:04:49.529Z,-1.43
2023-01-21T06:07:16.462Z,-1.50
2023-01-21T06:09:43.037Z,-1.56
2023-01-21T06:12:09.572Z,-1.61
2023-01-21T06:14:36.002Z,-1.58
2023-01-21T06:17:02.499Z,-1.59
2023-01-21T06:19:29.014Z,-1.58
2023-01-21T06:21:55.472Z,-1.54
2023-01-21T06:24:21.970Z,-1.53
2023-01-21T06:26:48.401Z,-1.53
2023-01-21T06:29:14.836Z,-1.60
2023-01-21T06:31:41.489Z,-1.57
2023-01-21T06:34:08.045Z,-1.60
2023-01-21T06:36:34.580Z,-1.64
2023-01-21T06:39:01.042Z,-1.70
2023-01-21T06:41:27.479Z,-1.74
2023-01-21T06:43:53.907Z,-1.76
2023-01-21T06:46:20.412Z,-1.75
2023-01-21T06:48:46.955Z,-1.75
2023-01-21T06:51:13.407Z,-1.77
2023-01-21T06:53:39.875Z,-1.77
2023-01-21T06:56:06.606Z,-1.75
2023-01-21T06:58:33.060Z,-1.68
2023-01-21T07:00:59.543Z,-1.67
2023-01-21T07:03:25.996Z,-1.67
2023-01-21T07:05:52.557Z,-1.59
2023-01-21T07:08:18.983Z,-1.57
2023-01-21T07:10:47.643Z,-1.41
2023-01-21T07:13:14.318Z,-1.34
2023-01-21T07:15:40.787Z,-1.26
2023-01-21T07:18:07.283Z,-1.17
2023-01-21T07:20:34.023Z,-1.11
2023-01-21T07:23:00.450Z,-1.04
2023-01-21T07:25:27.175Z,-0.93
2023-01-21T07:27:53.671Z,-0.86
2023-01-21T07:30:21.305Z,-0.77
2023-01-21T07:32:47.924Z,-0.70
2023-01-21T07:35:14.873Z,-0.65
2023-01-21T07:37:41.676Z,-0.61
2023-01-21T07:40:08.831Z,-0.50
2023-01-21T07:42:35.396Z,-0.45
2023-01-21T07:45:03.835Z,-0.38
2023-01-21T07:47:30.427Z,-0.32
2023-01-21T07:49:56.966Z,-0.23
2023-01-21T07:52:23.452Z,-0.19
2023-01-21T07:54:49.943Z,-0.11
2023-01-21T07:57:16.369Z,-0.09
2023-01-21T07:59:43.032Z,-0.03
2023-01-21T08:02:11.835Z,0.08
2023-01-21T08:04:38.337Z,0.15
2023-01-21T08:07:11.926Z,0.19
2023-01-21T08:09:39.489Z,0.25
2023-01-21T08:12:07.716Z,0.31
2023-01-21T08:14:34.202Z,0.33
2023-01-21T08:17:01.001Z,0.38
2023-01-21T08:19:27.898Z,0.41
2023-01-21T08:21:54.379Z,0.47
2023-01-21T08:24:20.863Z,0.51
2023-01-21T08:26:48.546Z,0.58
2023-01-21T08:29:15.449Z,0.62
2023-01-21T08:31:41.941Z,0.65
2023-01-21T08:34:08.535Z,0.71
2023-01-21T08:36:35.019Z,0.75
2023-01-21T08:39:02.013Z,0.80
2023-01-21T08:41:28.712Z,0.83
2023-01-21T08:43:55.212Z,0.85
2023-01-21T08:46:21.694Z,0.87
2023-01-21T08:48:48.376Z,0.91
2023-01-21T08:51:15.039Z,0.96
2023-01-21T08:53:41.566Z,0.96
2023-01-21T08:56:08.119Z,1.00
2023-01-21T08:58:34.933Z,1.05
2023-01-21T09:01:10.141Z,1.08
2023-01-21T09:03:36.864Z,1.12
2023-01-21T09:06:05.368Z,1.12
2023-01-21T09:08:32.510Z,1.20
2023-01-21T09:11:03.401Z,1.24
2023-01-21T09:13:32.053Z,1.29
2023-01-21T09:15:58.636Z,1.34
2023-01-21T09:18:25.273Z,1.35
2023-01-21T09:20:52.130Z,1.41
2023-01-21T09:23:25.056Z,1.45
2023-01-21T09:26:05.589Z,1.49
2023-01-21T09:28:36.301Z,1.47
2023-01-21T09:31:05.896Z,1.51
2023-01-21T09:33:35.430Z,1.56
2023-01-21T09:36:04.505Z,1.60
2023-01-21T09:38:31.154Z,1.61
2023-01-21T09:41:12.173Z,1.67
2023-01-21T09:43:50.794Z,1.69
2023-01-21T09:46:36.039Z,1.74
2023-01-21T09:49:05.621Z,1.76
2023-01-21T09:51:47.687Z,1.76
2023-01-21T09:54:34.154Z,1.80
2023-01-21T09:57:19.463Z,1.82
2023-01-21T10:00:05.482Z,1.86
2023-01-21T10:02:48.793Z,1.86
2023-01-21T10:05:18.670Z,1.93
2023-01-21T10:07:52.890Z,1.95
2023-01-21T10:10:32.457Z,1.97
2023-01-21T10:13:13.329Z,1.98
2023-01-21T10:15:49.717Z,2.00
2023-01-21T10:18:26.136Z,1.97
2023-01-21T10:20:56.884Z,2.00
2023-01-21T10:23:33.964Z,2.03
2023-01-21T10:26:07.671Z,2.06
2023-01-21T10:28:34.493Z,2.03
2023-01-21T10:31:18.783Z,2.08
2023-01-21T10:33:45.350Z,2.13
2023-01-21T10:36:45.215Z,2.13
2023-01-21T10:39:36.513Z,2.16
2023-01-21T10:42:43.034Z,2.18
2023-01-21T10:45:34.963Z,2.28
2023-01-21T10:48:11.594Z,2.30
2023-01-21T10:50:50.917Z,2.38
2023-01-21T10:53:56.662Z,2.30
2023-01-21T10:56:33.946Z,2.46
2023-01-21T10:59:05.838Z,2.50
2023-01-21T11:01:50.295Z,2.53
2023-01-21T11:04:20.698Z,2.58
2023-01-21T11:06:59.134Z,2.59
2023-01-21T11:09:30.065Z,2.61
2023-01-21T11:11:56.610Z,2.66
2023-01-21T11:14:25.572Z,2.64
2023-01-21T11:16:53.381Z,2.69
2023-01-21T11:19:27.852Z,2.71
2023-01-21T11:21:57.260Z,2.76
2023-01-21T11:24:25.669Z,2.77
2023-01-21T11:26:55.078Z,2.80
2023-01-21T11:29:23.735Z,2.82
2023-01-21T11:32:18.449Z,2.78
2023-01-21T11:34:47.389Z,2.91
2023-01-21T11:37:27.052Z,2.90
2023-01-21T11:39:56.305Z,2.94
2023-01-21T11:42:23.795Z,2.98
2023-01-21T11:45:01.381Z,3.04
2023-01-21T11:47:36.208Z,3.02
2023-01-21T11:50:34.805Z,3.07
2023-01-21T11:53:07.757Z,3.08
2023-01-21T11:55:40.740Z,3.05
2023-01-21T11:58:23.657Z,3.06
2023-01-21T12:00:53.677Z,3.11
2023-01-21T12:03:24.823Z,3.18
2023-01-21T12:05:53.264Z,3.16
2023-01-21T12:08:25.968Z,3.13
2023-01-21T12:10:55.911Z,3.16
2023-01-21T12:13:55.321Z,3.10
2023-01-21T12:16:28.688Z,3.15
2023-01-21T12:19:26.601Z,3.17
2023-01-21T12:22:24.246Z,3.19
2023-01-21T12:24:56.879Z,3.19
2023-01-21T12:27:39.832Z,3.19
2023-01-21T12:30:25.183Z,3.24
2023-01-21T12:33:00.165Z,3.32
2023-01-21T12:35:32.877Z,3.34
2023-01-21T12:38:04.995Z,3.32
2023-01-21T12:40:36.950Z,3.31
2023-01-21T12:43:34.795Z,3.33
2023-01-21T12:46:13.957Z,3.32
2023-01-21T12:48:57.428Z,3.30
2023-01-21T12:51:30.344Z,3.30
2023-01-21T12:54:05.846Z,3.29
2023-01-21T12:57:04.877Z,3.31
2023-01-21T12:59:43.561Z,3.28
2023-01-21T13:02:21.987Z,3.30
2023-01-21T13:05:53.451Z,3.29
2023-01-21T13:08:35.297Z,3.27
2023-01-21T13:11:27.713Z,3.22
2023-01-21T13:14:09.247Z,3.23
2023-01-21T13:16:43.483Z,3.22
2023-01-21T13:19:14.330Z,3.24
2023-01-21T13:22:02.170Z,3.25
2023-01-21T13:24:33.320Z,3.21
2023-01-21T13:26:59.702Z,3.28
2023-01-21T13:29:28.906Z,3.27
2023-01-21T13:32:19.961Z,3.25
2023-01-21T13:35:06.794Z,3.26
2023-01-21T13:37:41.565Z,3.19
2023-01-21T13:40:32.694Z,3.16
2023-01-21T13:43:21.315Z,3.19
2023-01-21T13:46:06.367Z,3.19
2023-01-21T13:48:59.102Z,3.19
2023-01-21T13:52:05.287Z,3.21
2023-01-21T13:54:34.483Z,3.26
2023-01-21T13:57:21.818Z,3.27
2023-01-21T14:00:00.585Z,3.28
2023-01-21T14:02:38.333Z,3.26
2023-01-21T14:05:10.853Z,3.31
2023-01-21T14:07:50.665Z,3.32
2023-01-21T14:10:44.554Z,3.33
2023-01-21T18:22:53.112Z,1.11
2023-01-21T18:25:20.418Z,1.06
2023-01-21T18:27:51.834Z,1.22
2023-01-21T18:30:20.280Z,1.27
2023-01-21T18:32:46.985Z,1.30
2023-01-21T18:35:19.456Z,1.34
2023-01-21T18:37:46.318Z,1.34
2023-01-21T18:40:17.652Z,1.35
2023-01-21T18:42:45.966Z,1.42
2023-01-21T18:45:20.479Z,1.47
2023-01-21T18:47:48.572Z,1.48
2023-01-21T18:50:20.473Z,1.47
2023-01-21T18:52:47.059Z,1.50
2023-01-21T18:55:15.315Z,1.52
2023-01-21T18:57:44.150Z,1.56
2023-01-21T19:00:18.996Z,1.61
2023-01-21T19:02:46.172Z,1.65
2023-01-21T19:05:13.011Z,1.59
2023-01-21T19:07:39.516Z,1.67
2023-01-21T19:10:06.753Z,1.70
2023-01-21T19:12:33.215Z,1.68
2023-01-21T19:15:00.186Z,1.71
2023-01-21T19:17:29.765Z,1.68
2023-01-21T19:19:57.019Z,1.72
2023-01-21T19:22:23.819Z,1.67
2023-01-21T19:24:50.656Z,1.71
2023-01-21T19:27:33.991Z,1.74
2023-01-21T19:30:00.458Z,1.76
2023-01-21T19:32:26.984Z,1.76
2023-01-21T19:34:54.460Z,1.79
2023-01-21T19:37:23.224Z,1.78
2023-01-21T19:39:49.713Z,1.77
2023-01-21T19:42:16.451Z,1.76
2023-01-21T19:44:43.101Z,1.78
2023-01-21T19:47:24.732Z,1.80
2023-01-21T19:49:51.217Z,1.71
2023-01-21T19:52:17.687Z,1.78
2023-01-21T19:54:44.152Z,1.80
2023-01-21T19:57:15.257Z,1.78
2023-01-21T19:59:45.439Z,1.78
2023-01-21T20:02:12.506Z,1.77
2023-01-21T20:04:39.583Z,1.76
2023-01-21T20:07:07.169Z,1.74
2023-01-21T20:09:33.609Z,1.80
2023-01-21T20:12:02.130Z,1.79
2023-01-21T20:14:30.692Z,1.79
2023-01-21T20:16:57.117Z,1.79
2023-01-21T20:19:23.707Z,1.78
2023-01-21T20:22:01.197Z,1.78
2023-01-21T20:24:30.293Z,1.84
2023-01-21T20:26:58.079Z,1.84
2023-01-21T20:29:26.542Z,1.83
2023-01-21T20:31:54.297Z,1.86
2023-01-21T20:34:20.954Z,1.85
2023-01-21T20:36:49.533Z,1.82
2023-01-21T20:39:16.177Z,1.85
2023-01-21T20:41:43.393Z,1.87
2023-01-21T20:44:10.385Z,1.92
2023-01-21T20:46:36.955Z,1.91
2023-01-21T20:49:03.489Z,1.89
2023-01-21T20:51:30.049Z,1.93
2023-01-21T20:53:56.544Z,1.92
2023-01-21T20:56:34.984Z,1.97
2023-01-21T20:59:01.492Z,1.97
2023-01-21T21:01:28.734Z,1.97
2023-01-21T21:03:55.563Z,1.99
2023-01-21T21:06:25.956Z,2.00
2023-01-21T21:08:52.712Z,1.99
2023-01-21T21:11:20.002Z,2.04
2023-01-21T21:13:48.485Z,2.04
2023-01-21T21:16:20.132Z,2.07
2023-01-21T21:18:47.608Z,2.07
2023-01-21T21:21:15.544Z,2.09
2023-01-21T21:23:41.989Z,2.09
2023-01-21T21:26:29.090Z,2.13
2023-01-21T21:28:55.904Z,2.13
2023-01-21T21:31:23.898Z,2.11
2023-01-21T21:33:50.735Z,2.15
2023-01-21T21:36:23.074Z,2.14
2023-01-21T21:38:50.021Z,2.14
2023-01-21T21:41:37.372Z,2.13
2023-01-21T21:44:08.069Z,2.16
2023-01-21T21:46:53.729Z,2.15
2023-01-21T21:49:20.209Z,2.11
2023-01-21T21:51:46.705Z,2.13
2023-01-21T21:54:15.832Z,2.08
2023-01-21T21:56:42.852Z,2.02
2023-01-21T21:59:10.343Z,2.00
2023-01-21T22:01:36.971Z,1.92
2023-01-21T22:04:04.561Z,1.89
2023-01-21T22:06:32.118Z,1.80
2023-01-21T22:08:59.327Z,1.81
2023-01-21T22:11:27.226Z,1.76
2023-01-21T22:13:54.754Z,1.69
2023-01-21T22:16:27.570Z,1.64
2023-01-21T22:18:55.049Z,1.58
2023-01-21T22:21:24.800Z,1.51
2023-01-21T22:23:52.595Z,1.46
2023-01-21T22:26:21.836Z,1.38
2023-01-21T22:28:49.055Z,1.32
2023-01-21T22:31:26.590Z,1.28
2023-01-21T22:33:53.521Z,1.17
2023-01-21T22:36:22.375Z,1.11
2023-01-21T22:38:49.468Z,1.17
2023-01-21T22:41:18.185Z,1.17
2023-01-21T22:43:45.793Z,1.17
2023-01-21T22:46:14.520Z,1.16
2023-01-21T22:48:42.151Z,1.16
2023-01-21T22:51:12.812Z,1.15
2023-01-21T22:53:45.465Z,1.20
2023-01-21T22:56:14.606Z,1.26
2023-01-21T22:58:41.418Z,1.30
2023-01-21T23:01:08.718Z,1.35
2023-01-21T23:03:36.848Z,1.36
2023-01-21T23:06:06.190Z,1.41
2023-01-21T23:08:33.312Z,1.43
2023-01-21T23:11:01.768Z,1.54
2023-01-21T23:13:28.607Z,1.57
2023-01-21T23:15:55.175Z,1.60
2023-01-21T23:18:22.264Z,1.62
2023-01-21T23:20:48.866Z,1.68
2023-01-21T23:23:15.388Z,1.73
2023-01-21T23:25:43.210Z,1.77
2023-01-21T23:28:11.905Z,1.81
2023-01-21T23:30:38.748Z,1.83
2023-01-21T23:33:05.291Z,1.88
2023-01-21T23:35:34.318Z,1.90
2023-01-21T23:38:02.406Z,1.92
2023-01-21T23:40:28.840Z,1.94
2023-01-21T23:42:55.375Z,1.96
2023-01-21T23:45:21.820Z,2.01
2023-01-21T23:47:48.584Z,2.01
2023-01-21T23:50:15.608Z,1.99
2023-01-21T23:52:42.194Z,2.02
2023-01-21T23:55:10.375Z,2.04
2023-01-21T23:57:37.555Z,2.04
